Time;durP1;ratioP1;P1;durP2;ratioP2;P2;SDS_P1;SDS_P2;PMS_P1;PMS_P2;Temp;Humidity;BMP_temperature;BMP_pressure;BME280_temperature;BME280_humidity;BME280_pressure;Samples;Min_cycle;Max_cycle;Signal;HPM_P1;HPM_P2
2023/07/20 00:00:54;;;;;;;7.22;3.97;;;;;;;27.95;53.64;100399.53;5059751;28;20053;-56
2023/07/20 00:03:25;;;;;;;5.63;2.97;;;;;;;27.95;53.66;100400.34;5066497;28;20049;-56
2023/07/20 00:05:52;;;;;;;4.82;3.30;;;;;;;27.96;53.56;100385.72;5068868;28;20044;-57
2023/07/20 00:08:20;;;;;;;5.50;2.83;;;;;;;27.97;53.64;100381.97;5059353;28;20049;-57
2023/07/20 00:10:47;;;;;;;5.50;2.97;;;;;;;27.98;53.68;100377.34;5060753;28;20056;-57
2023/07/20 00:13:15;;;;;;;5.60;3.22;;;;;;;28.00;53.19;100386.19;5065858;28;20045;-57
2023/07/20 00:15:43;;;;;;;7.35;3.22;;;;;;;27.98;53.54;100386.34;5068720;28;20056;-57
2023/07/20 00:18:10;;;;;;;5.13;2.70;;;;;;;28.00;53.37;100408.78;5057589;28;20127;-57
2023/07/20 00:20:38;;;;;;;3.72;2.92;;;;;;;28.01;53.32;100405.00;5054722;28;20048;-57
2023/07/20 00:23:06;;;;;;;3.78;2.60;;;;;;;28.02;53.26;100390.38;5064657;28;20045;-56
2023/07/20 00:25:34;;;;;;;4.28;3.08;;;;;;;28.03;53.45;100396.63;5060972;28;20041;-56
2023/07/20 00:28:02;;;;;;;5.32;3.30;;;;;;;28.04;53.17;100429.13;5071487;28;20408;-58
2023/07/20 00:30:29;;;;;;;4.60;2.40;;;;;;;28.05;53.39;100436.22;5060209;28;20460;-57
2023/07/20 00:32:57;;;;;;;3.95;2.60;;;;;;;28.06;53.35;100418.84;5047147;28;20045;-58
2023/07/20 00:35:24;;;;;;;4.47;3.40;;;;;;;28.08;53.44;100397.75;5055008;28;20045;-58
2023/07/20 00:37:52;;;;;;;5.60;2.70;;;;;;;28.08;53.29;100405.91;5070423;28;20075;-58
2023/07/20 00:40:20;;;;;;;4.78;3.30;;;;;;;28.09;53.37;100401.28;5060479;28;20488;-57
2023/07/20 00:42:48;;;;;;;4.72;2.97;;;;;;;28.10;53.38;100403.81;5062538;28;20060;-58
2023/07/20 00:45:21;;;;;;;4.25;2.83;;;;;;;28.12;53.35;100414.50;5054621;28;20056;-57
2023/07/20 00:47:48;;;;;;;5.20;3.47;;;;;;;28.14;53.24;100414.31;5070713;28;20048;-55
2023/07/20 00:50:16;;;;;;;5.60;2.80;;;;;;;28.14;53.26;100397.97;5070170;28;20051;-56
2023/07/20 00:52:45;;;;;;;3.97;2.53;;;;;;;28.15;53.38;100410.53;5071246;28;20056;-56
2023/07/20 00:55:13;;;;;;;3.58;2.30;;;;;;;28.16;53.10;100407.63;5059276;28;20056;-56
2023/07/20 00:57:41;;;;;;;4.53;2.38;;;;;;;28.16;52.97;100406.78;5067822;28;20049;-56
2023/07/20 01:00:09;;;;;;;5.07;2.78;;;;;;;28.17;53.32;100413.91;5053981;28;20057;-56
2023/07/20 01:02:36;;;;;;;4.68;3.40;;;;;;;28.17;52.94;100414.75;5064282;28;20051;-57
2023/07/20 01:05:06;;;;;;;3.65;2.50;;;;;;;28.19;53.34;100406.38;5058784;28;20048;-56
2023/07/20 01:07:43;;;;;;;4.82;2.67;;;;;;;28.19;52.98;100409.91;5069343;28;20049;-57
2023/07/20 01:10:16;;;;;;;3.83;2.50;;;;;;;28.20;53.19;100436.13;5062788;28;20408;-57
2023/07/20 01:12:47;;;;;;;4.10;2.50;;;;;;;28.20;53.24;100441.56;5060881;28;20052;-57
2023/07/20 01:15:16;;;;;;;;;;;;;;;28.19;53.00;100439.88;5071057;28;20488;-57
2023/07/20 01:17:44;;;;;;;4.13;2.40;;;;;;;28.23;52.92;100423.97;5053913;28;19928;-56
2023/07/20 01:20:16;;;;;;;5.18;2.75;;;;;;;28.23;53.08;100419.38;5063483;28;20041;-56
2023/07/20 01:22:59;;;;;;;6.35;2.60;;;;;;;28.23;52.86;100427.53;5058739;28;20059;-56
2023/07/20 01:25:58;;;;;;;5.38;2.88;;;;;;;28.25;53.17;100440.97;5058042;28;20416;-56
2023/07/20 01:28:56;;;;;;;4.10;2.80;;;;;;;28.25;53.28;100430.91;5060680;28;20045;-56
2023/07/20 01:31:31;;;;;;;3.83;2.50;;;;;;;28.26;53.20;100439.91;5059326;28;20511;-55
2023/07/20 01:34:01;;;;;;;3.70;2.65;;;;;;;28.27;53.15;100438.88;5063151;28;20049;-56
2023/07/20 01:36:32;;;;;;;3.47;2.38;;;;;;;28.27;53.13;100439.69;5053932;28;20049;-57
2023/07/20 01:39:00;;;;;;;5.20;2.70;;;;;;;28.28;53.01;100443.28;5069190;28;20049;-57
2023/07/20 01:41:27;;;;;;;4.28;2.83;;;;;;;28.29;53.25;100450.41;5053812;28;20052;-57
2023/07/20 01:43:59;;;;;;;4.20;2.30;;;;;;;28.29;53.34;100436.81;5053677;28;20053;-57
2023/07/20 01:46:26;;;;;;;4.68;2.80;;;;;;;28.29;53.05;100439.53;5068640;28;20053;-57
2023/07/20 01:48:54;;;;;;;5.47;2.45;;;;;;;28.31;53.41;100459.19;5069702;28;20492;-57
2023/07/20 01:51:22;;;;;;;3.83;2.72;;;;;;;28.32;53.13;100466.34;5061367;28;20056;-58
2023/07/20 01:53:49;;;;;;;4.57;2.90;;;;;;;28.32;53.22;100477.25;5060415;28;20519;-57
2023/07/20 01:56:17;;;;;;;5.47;3.15;;;;;;;28.32;53.42;100469.06;5069210;28;20052;-57
2023/07/20 01:58:44;;;;;;;3.53;2.33;;;;;;;28.32;53.20;100471.81;5056534;28;20127;-57
2023/07/20 02:01:11;;;;;;;5.63;2.63;;;;;;;28.33;53.06;100474.31;5064599;28;20068;-57
2023/07/20 02:03:39;;;;;;;5.65;2.80;;;;;;;28.34;53.10;100465.09;5065035;28;20046;-57
2023/07/20 02:06:06;;;;;;;3.42;2.40;;;;;;;28.34;53.39;100459.66;5067104;28;20048;-57
2023/07/20 02:08:33;;;;;;;3.85;2.83;;;;;;;28.34;53.03;100453.38;5068837;28;20051;-55
2023/07/20 02:11:01;;;;;;;3.90;2.50;;;;;;;28.34;53.23;100475.97;5060901;28;20065;-56
2023/07/20 02:13:30;;;;;;;3.67;2.28;;;;;;;28.36;53.31;100492.16;5061353;28;20049;-57
2023/07/20 02:15:57;;;;;;;3.85;2.10;;;;;;;28.35;53.01;100499.44;5068984;28;20045;-57
2023/07/20 02:18:25;;;;;;;3.55;2.67;;;;;;;28.37;53.37;100482.94;5056666;28;20053;-56
2023/07/20 02:20:55;;;;;;;4.38;2.20;;;;;;;28.38;53.00;100479.19;5064392;28;20622;-56
2023/07/20 02:23:23;;;;;;;3.20;2.40;;;;;;;28.38;52.85;100481.91;5065490;28;20051;-56
2023/07/20 02:25:50;;;;;;;5.75;2.95;;;;;;;28.38;53.33;100483.78;5057411;28;20488;-56
2023/07/20 02:28:17;;;;;;;4.50;2.75;;;;;;;28.39;52.96;100489.03;5066834;28;20071;-56
2023/07/20 02:30:45;;;;;;;5.93;2.40;;;;;;;28.38;53.26;100492.78;5053465;28;20504;-56
2023/07/20 02:33:13;;;;;;;3.88;2.67;;;;;;;28.40;53.22;100489.84;5064581;28;20053;-56
2023/07/20 02:35:40;;;;;;;5.47;2.80;;;;;;;28.41;53.29;100486.97;5061213;28;20056;-56
2023/07/20 02:38:08;;;;;;;4.13;2.83;;;;;;;28.42;52.99;100495.97;5072574;28;20491;-56
2023/07/20 02:40:35;;;;;;;4.13;2.40;;;;;;;28.41;53.36;100486.97;5065167;28;20053;-56
2023/07/20 02:43:02;;;;;;;3.70;2.55;;;;;;;28.41;52.86;100486.97;5063166;28;20052;-54
2023/07/20 02:45:30;;;;;;;4.93;2.42;;;;;;;28.42;53.35;100493.25;5057971;28;20057;-55
2023/07/20 02:47:57;;;;;;;4.88;2.42;;;;;;;28.42;53.21;100494.06;5062117;28;20041;-56
2023/07/20 02:50:24;;;;;;;5.47;3.00;;;;;;;28.43;53.29;100489.47;5068293;28;20056;-55
2023/07/20 02:52:52;;;;;;;3.03;2.47;;;;;;;28.44;52.94;100485.69;5068905;28;20045;-56
2023/07/20 02:55:20;;;;;;;4.68;2.72;;;;;;;28.44;53.25;100485.69;5060516;28;20049;-55
2023/07/20 02:57:47;;;;;;;3.70;2.60;;;;;;;28.44;52.82;100480.25;5061391;28;20413;-56
2023/07/20 03:00:16;;;;;;;4.82;2.80;;;;;;;28.44;53.28;100481.13;5067011;28;20048;-55
2023/07/20 03:02:43;;;;;;;4.10;2.85;;;;;;;28.45;53.26;100479.22;5068850;28;20522;-56
2023/07/20 03:05:11;;;;;;;4.32;2.60;;;;;;;28.45;53.01;100479.22;5060779;28;20052;-64
2023/07/20 03:07:38;;;;;;;4.63;2.80;;;;;;;28.46;53.05;100480.91;5061116;28;20048;-63
2023/07/20 03:10:09;;;;;;;5.55;2.75;;;;;;;28.45;52.90;100474.63;5067950;28;20488;-63
2023/07/20 03:12:36;;;;;;;4.97;2.67;;;;;;;28.43;53.20;100476.69;5056809;28;20048;-64
2023/07/20 03:15:04;;;;;;;4.18;2.85;;;;;;;28.43;53.04;100475.84;5069785;28;20072;-63
2023/07/20 03:17:32;;;;;;;5.45;3.30;;;;;;;28.41;52.88;100486.97;5061088;28;20052;-63
2023/07/20 03:20:00;;;;;;;5.78;3.65;;;;;;;28.39;53.04;100472.69;5067910;28;20067;-64
2023/07/20 03:22:29;;;;;;;7.82;3.28;;;;;;;28.38;53.08;100476.47;5073205;28;20044;-63
2023/07/20 03:24:57;;;;;;;6.35;3.17;;;;;;;28.36;52.64;100470.38;5059890;28;20041;-64
2023/07/20 03:27:24;;;;;;;4.93;3.58;;;;;;;28.35;52.48;100465.94;5070771;28;20049;-58
2023/07/20 03:29:51;;;;;;;5.72;3.33;;;;;;;28.34;52.41;100464.25;5064997;28;20040;-58
2023/07/20 03:32:19;;;;;;;4.65;3.15;;;;;;;28.32;52.27;100456.31;5061313;28;20053;-58
2023/07/20 03:34:46;;;;;;;5.90;3.42;;;;;;;28.32;52.75;100459.03;5071815;28;20049;-58
2023/07/20 03:37:14;;;;;;;6.25;3.38;;;;;;;28.32;52.47;100464.47;5058408;28;20052;-58
2023/07/20 03:39:42;;;;;;;5.03;3.05;;;;;;;28.32;52.85;100466.34;5065377;28;20053;-58
2023/07/20 03:42:09;;;;;;;4.95;3.10;;;;;;;28.32;52.48;100445.41;5055875;28;20049;-59
2023/07/20 03:44:36;;;;;;;5.15;3.45;;;;;;;28.32;52.83;100442.69;5071001;28;20041;-58
2023/07/20 03:47:04;;;;;;;4.75;3.13;;;;;;;28.32;52.36;100439.13;5060870;28;20045;-63
2023/07/20 03:49:32;;;;;;;5.35;3.80;;;;;;;28.32;52.75;100444.56;5065351;28;20504;-63
2023/07/20 03:52:00;;;;;;;5.38;3.45;;;;;;;28.30;52.50;100452.09;5053793;28;20500;-63
2023/07/20 03:54:27;;;;;;;8.13;3.40;;;;;;;28.30;52.49;100457.53;5056465;28;20045;-63
2023/07/20 03:56:54;;;;;;;4.55;3.22;;;;;;;28.29;52.16;100462.13;5070133;28;20052;-63
2023/07/20 03:59:22;;;;;;;5.13;3.30;;;;;;;28.30;52.53;100463.81;5064723;28;20059;-63
2023/07/20 04:01:49;;;;;;;5.80;3.22;;;;;;;28.30;52.11;100461.09;5062775;28;20116;-63
2023/07/20 04:04:17;;;;;;;6.93;3.30;;;;;;;28.30;52.49;100444.75;5056151;28;20052;-63
2023/07/20 04:06:44;;;;;;;5.85;3.25;;;;;;;28.30;52.22;100433.88;5073076;28;20048;-58
2023/07/20 04:09:12;;;;;;;6.95;3.35;;;;;;;28.31;52.03;100438.25;5066625;28;20049;-58
2023/07/20 04:11:40;;;;;;;6.53;3.20;;;;;;;28.31;52.41;100446.44;5054877;28;20049;-58
2023/07/20 04:14:07;;;;;;;6.63;2.90;;;;;;;28.33;52.15;100446.25;5069262;28;20496;-59
2023/07/20 04:16:35;;;;;;;5.88;3.45;;;;;;;28.33;52.27;100438.06;5055181;28;20111;-58
2023/07/20 04:19:02;;;;;;;6.22;3.25;;;;;;;28.33;52.30;100440.81;5063033;28;20048;-58
2023/07/20 04:21:30;;;;;;;5.43;2.92;;;;;;;28.32;51.87;100439.13;5071130;28;20052;-58
2023/07/20 04:23:58;;;;;;;5.75;3.65;;;;;;;28.33;51.62;100446.25;5069980;28;20421;-58
2023/07/20 04:26:26;;;;;;;5.43;3.40;;;;;;;28.33;51.72;100448.97;5053922;28;20404;-63
2023/07/20 04:28:53;;;;;;;6.38;3.30;;;;;;;28.32;51.53;100450.00;5061908;28;20052;-63
2023/07/20 04:31:39;;;;;;;6.07;3.55;;;;;;;28.31;51.83;100442.88;5070838;28;20056;-63
2023/07/20 04:34:06;;;;;;;5.50;3.38;;;;;;;28.31;51.80;100457.31;5058931;28;20049;-63
2023/07/20 04:36:35;;;;;;;5.13;3.40;;;;;;;28.29;51.43;100445.81;5066353;28;20053;-63
2023/07/20 04:39:05;;;;;;;7.13;3.28;;;;;;;28.29;51.78;100453.97;5064556;28;20420;-63
2023/07/20 04:41:48;;;;;;;4.57;3.40;;;;;;;28.29;51.56;100450.41;5057079;28;20500;-63
2023/07/20 04:44:16;;;;;;;5.28;3.13;;;;;;;28.29;51.84;100453.13;5066446;28;20041;-63
2023/07/20 04:46:44;;;;;;;5.90;3.15;;;;;;;28.28;51.61;100457.75;5065257;28;20041;-58
2023/07/20 04:49:14;;;;;;;5.72;3.50;;;;;;;28.28;51.56;100448.75;5059626;28;20115;-58
2023/07/20 04:51:43;;;;;;;5.60;3.60;;;;;;;28.28;51.67;100451.47;5068693;28;20064;-58
2023/07/20 04:54:11;;;;;;;4.38;2.70;;;;;;;28.29;51.88;100453.13;5069231;28;20055;-58
2023/07/20 04:56:39;;;;;;;5.45;3.22;;;;;;;28.29;52.41;100453.97;5068325;28;20075;-63
2023/07/20 04:59:09;;;;;;;6.70;3.22;;;;;;;28.28;52.19;100446.84;5054087;28;20053;-63
2023/07/20 05:01:36;;;;;;;7.53;3.75;;;;;;;28.28;52.15;100446.00;5069051;28;20049;-63
2023/07/20 05:04:04;;;;;;;6.78;4.32;;;;;;;28.28;52.27;100444.13;5061373;28;20485;-63
2023/07/20 05:06:34;;;;;;;6.53;3.47;;;;;;;28.28;52.28;100443.28;5060912;28;20053;-63
2023/07/20 05:09:02;;;;;;;5.85;3.70;;;;;;;28.27;52.64;100456.03;5054489;28;20049;-63
2023/07/20 05:11:29;;;;;;;4.85;3.38;;;;;;;28.27;52.57;100450.59;5057589;28;20516;-63
2023/07/20 05:13:57;;;;;;;6.82;3.53;;;;;;;28.27;52.55;100450.59;5064842;28;20052;-63
2023/07/20 05:16:24;;;;;;;4.97;3.05;;;;;;;28.27;52.19;100461.47;5054171;28;20068;-63
2023/07/20 05:18:52;;;;;;;5.38;3.05;;;;;;;28.28;52.34;100449.56;5067192;28;20057;-63
2023/07/20 05:21:20;;;;;;;5.20;3.92;;;;;;;28.27;51.98;100449.75;5057336;28;20055;-63
2023/07/20 05:23:47;;;;;;;8.20;3.75;;;;;;;28.28;52.30;100451.47;5065808;28;20420;-63
2023/07/20 05:26:15;;;;;;;7.63;3.83;;;;;;;28.27;52.20;100450.59;5053919;28;20049;-58
2023/07/20 05:28:43;;;;;;;5.78;3.55;;;;;;;28.28;52.51;100455.03;5069462;28;20048;-58
2023/07/20 05:31:10;;;;;;;4.80;3.20;;;;;;;28.29;52.51;100453.97;5058497;28;20048;-58
2023/07/20 05:33:37;;;;;;;5.45;3.72;;;;;;;28.29;52.27;100456.69;5065586;28;20041;-58
2023/07/20 05:36:05;;;;;;;7.97;4.30;;;;;;;28.30;52.45;100460.25;5054625;28;20040;-58
2023/07/20 05:38:32;;;;;;;8.32;4.70;;;;;;;28.31;52.36;100461.94;5068268;28;20044;-63
2023/07/20 05:41:03;;;;;;;7.05;4.60;;;;;;;28.32;52.52;100463.63;5058291;28;20496;-63
2023/07/20 05:43:31;;;;;;;6.65;4.35;;;;;;;28.34;52.55;100465.09;5065399;28;20053;-63
2023/07/20 05:45:58;;;;;;;5.70;4.03;;;;;;;28.34;52.97;100462.38;5065953;28;20044;-64
2023/07/20 05:48:25;;;;;;;7.60;4.35;;;;;;;28.35;53.11;100469.50;5058000;28;20411;-58
2023/07/20 05:50:53;;;;;;;6.47;3.72;;;;;;;28.36;52.96;100459.50;5071759;28;20064;-58
2023/07/20 05:53:21;;;;;;;6.72;4.00;;;;;;;28.35;52.77;100463.19;5064925;28;20045;-58
2023/07/20 05:55:52;;;;;;;5.07;3.33;;;;;;;28.36;52.96;100459.50;5066120;28;20045;-58
2023/07/20 05:58:20;;;;;;;9.00;3.58;;;;;;;28.35;53.12;100464.03;5057407;28;20060;-63
2023/07/20 06:00:49;;;;;;;6.25;3.72;;;;;;;28.36;52.90;100459.50;5068403;28;20049;-63
2023/07/20 06:03:16;;;;;;;7.15;3.42;;;;;;;28.35;52.75;100472.22;5062312;28;20403;-63
2023/07/20 06:05:44;;;;;;;5.55;3.67;;;;;;;28.36;52.91;100473.09;5060075;28;20052;-63
2023/07/20 06:08:11;;;;;;;6.93;4.20;;;;;;;28.35;52.68;100474.94;5072199;28;20045;-63
2023/07/20 06:10:38;;;;;;;5.68;3.33;;;;;;;28.37;53.28;100477.50;5072321;28;20420;-63
2023/07/20 06:13:07;;;;;;;6.13;3.42;;;;;;;28.37;53.04;100477.50;5066760;28;20044;-63
2023/07/20 06:15:35;;;;;;;9.35;3.40;;;;;;;28.38;53.07;100484.63;5064103;28;20405;-63
2023/07/20 06:18:03;;;;;;;5.78;3.45;;;;;;;28.39;53.14;100485.47;5073843;28;20051;-63
2023/07/20 06:20:31;;;;;;;6.45;3.50;;;;;;;28.40;53.34;100493.44;5061839;28;20048;-63
2023/07/20 06:22:58;;;;;;;8.57;3.97;;;;;;;28.41;53.22;100491.56;5067767;28;20049;-64
2023/07/20 06:25:26;;;;;;;6.28;3.45;;;;;;;28.43;53.04;100493.03;5070875;28;20376;-64
2023/07/20 06:27:55;;;;;;;8.85;4.57;;;;;;;28.47;53.17;100496.19;5060167;28;20056;-58
2023/07/20 06:30:24;;;;;;;5.47;3.60;;;;;;;28.48;53.02;100498.72;5062859;28;20492;-59
2023/07/20 06:32:51;;;;;;;6.35;3.80;;;;;;;28.49;53.08;100494.13;5067307;28;20064;-60
2023/07/20 06:35:19;;;;;;;5.38;3.20;;;;;;;28.50;52.71;100490.34;5070968;28;20530;-59
2023/07/20 06:37:46;;;;;;;6.45;3.58;;;;;;;28.49;52.13;100496.84;5061036;28;20044;-59
2023/07/20 06:40:14;;;;;;;6.63;3.30;;;;;;;28.46;51.86;100491.78;5070785;28;20052;-59
2023/07/20 06:42:44;;;;;;;7.72;3.60;;;;;;;28.44;51.51;100493.88;5067147;28;20413;-60
2023/07/20 06:45:14;;;;;;;7.03;3.50;;;;;;;28.43;51.66;100490.31;5061775;28;20041;-60
2023/07/20 06:47:42;;;;;;;9.00;4.35;;;;;;;28.40;52.19;100498.91;5073285;28;20067;-59
2023/07/20 06:50:10;;;;;;;6.82;3.78;;;;;;;28.32;51.48;100499.03;5063535;28;20055;-59
2023/07/20 06:52:44;;;;;;;7.97;3.72;;;;;;;28.30;51.36;100506.53;5065137;28;20045;-61
2023/07/20 06:55:11;;;;;;;6.03;3.35;;;;;;;28.31;51.80;100502.75;5072400;28;20048;-62
2023/07/20 06:57:38;;;;;;;6.05;4.07;;;;;;;28.28;51.30;100503.19;5071487;28;20052;-61
2023/07/20 07:00:06;;;;;;;6.32;3.80;;;;;;;28.26;51.50;100508.81;5064077;28;20060;-60
2023/07/20 07:02:34;;;;;;;8.07;4.07;;;;;;;28.27;51.29;100512.38;5064679;28;20056;-57
2023/07/20 07:05:02;;;;;;;5.13;3.90;;;;;;;28.28;51.82;100504.03;5071753;28;20041;-57
2023/07/20 07:07:47;;;;;;;4.22;3.45;;;;;;;28.32;51.83;100509.91;5070345;28;20049;-57
2023/07/20 07:10:14;;;;;;;6.82;3.58;;;;;;;28.32;51.85;100510.75;5066467;28;20052;-57
2023/07/20 07:12:42;;;;;;;5.20;3.83;;;;;;;28.35;51.40;100514.94;5061474;28;20049;-57
2023/07/20 07:15:10;;;;;;;6.25;3.63;;;;;;;28.39;51.76;100518.97;5073878;28;20049;-57
2023/07/20 07:17:38;;;;;;;6.35;4.20;;;;;;;28.39;51.48;100510.81;5069731;28;20041;-57
2023/07/20 07:20:07;;;;;;;5.00;3.60;;;;;;;28.41;51.64;100503.28;5065119;28;20045;-57
2023/07/20 07:22:38;;;;;;;5.97;3.40;;;;;;;28.42;51.36;100509.56;5060755;28;20048;-57
2023/07/20 07:25:07;;;;;;;5.40;3.38;;;;;;;28.42;51.58;100515.84;5072063;28;20504;-57
2023/07/20 07:27:34;;;;;;;7.18;4.25;;;;;;;28.45;51.57;100511.91;5066151;28;20053;-62
2023/07/20 07:30:05;;;;;;;6.47;4.50;;;;;;;28.45;51.49;100504.56;5066693;28;20049;-62
2023/07/20 07:32:33;;;;;;;7.85;4.13;;;;;;;28.45;51.75;100507.28;5059810;28;20059;-62
2023/07/20 07:35:00;;;;;;;5.88;3.85;;;;;;;28.46;51.93;100519.03;5070332;28;20048;-62
2023/07/20 07:37:28;;;;;;;4.93;3.65;;;;;;;28.47;51.61;100518.81;5065582;28;20041;-62
2023/07/20 07:39:59;;;;;;;7.57;4.13;;;;;;;28.51;51.23;100524.69;5073627;28;20407;-62
2023/07/20 07:42:29;;;;;;;7.57;4.57;;;;;;;28.52;51.60;100521.81;5073961;28;20060;-62
2023/07/20 07:44:56;;;;;;;6.82;4.22;;;;;;;28.54;51.32;100514.25;5069815;28;20424;-62
2023/07/20 07:47:24;;;;;;;5.20;3.67;;;;;;;28.57;51.32;100524.75;5062905;28;20045;-62
2023/07/20 07:49:51;;;;;;;8.05;4.28;;;;;;;28.57;51.49;100521.19;5068234;28;20052;-62
2023/07/20 07:52:18;;;;;;;6.68;4.50;;;;;;;28.58;51.91;100531.88;5058569;28;20045;-62
2023/07/20 07:54:46;;;;;;;5.93;3.92;;;;;;;28.62;51.43;100518.69;5059965;28;20049;-62
2023/07/20 07:57:13;;;;;;;5.00;3.75;;;;;;;28.65;51.33;100520.19;5066843;28;20048;-56
2023/07/20 07:59:41;;;;;;;4.90;3.78;;;;;;;28.67;51.68;100529.00;5067031;28;20052;-56
2023/07/20 08:02:08;;;;;;;5.68;3.65;;;;;;;28.68;51.54;100525.22;5070974;28;20044;-56
2023/07/20 08:04:35;;;;;;;5.97;3.60;;;;;;;28.70;51.25;100529.44;5073259;28;20053;-56
2023/07/20 08:07:04;;;;;;;6.15;4.00;;;;;;;28.71;51.79;100527.53;5064514;28;20412;-58
2023/07/20 08:09:31;;;;;;;6.32;4.20;;;;;;;28.71;51.33;100517.50;5067006;28;20044;-58
2023/07/20 08:11:59;;;;;;;7.55;4.60;;;;;;;28.74;51.80;100518.97;5068854;28;20051;-58
2023/07/20 08:14:26;;;;;;;6.78;4.45;;;;;;;28.75;51.45;100517.94;5069459;28;20408;-58
2023/07/20 08:16:54;;;;;;;6.55;4.22;;;;;;;28.76;51.80;100512.31;5056647;28;20052;-58
2023/07/20 08:19:23;;;;;;;6.45;4.10;;;;;;;28.78;51.57;100525.69;5067008;28;20059;-58
2023/07/20 08:21:51;;;;;;;7.75;4.13;;;;;;;28.77;51.82;100519.41;5071805;28;20413;-58
2023/07/20 08:24:18;;;;;;;6.63;3.78;;;;;;;28.77;51.57;100515.84;5059491;28;20052;-58
2023/07/20 08:26:45;;;;;;;6.63;3.90;;;;;;;28.78;51.62;100515.66;5073232;28;20044;-63
2023/07/20 08:29:13;;;;;;;7.53;4.10;;;;;;;28.78;51.87;100518.38;5061644;28;20048;-62
2023/07/20 08:31:41;;;;;;;9.30;4.57;;;;;;;28.77;51.86;100515.84;5060177;28;20056;-64
2023/07/20 08:34:08;;;;;;;5.70;3.47;;;;;;;28.78;51.64;100520.25;5059033;28;20056;-63
2023/07/20 08:36:56;;;;;;;5.82;2.90;;;;;;;28.78;51.73;100522.97;5072518;28;20423;-63
2023/07/20 08:39:24;;;;;;;7.07;4.30;;;;;;;28.80;51.43;100526.31;5058587;28;20045;-63
2023/07/20 08:41:51;;;;;;;6.80;3.95;;;;;;;28.81;51.50;100520.69;5071795;28;20044;-63
2023/07/20 08:44:19;;;;;;;6.70;3.70;;;;;;;28.83;51.47;100526.78;5066612;28;20052;-63
2023/07/20 08:46:48;;;;;;;7.22;4.05;;;;;;;28.85;51.48;100520.31;5064909;28;20411;-58
2023/07/20 08:49:18;;;;;;;7.70;4.30;;;;;;;28.88;51.68;100517.16;5058082;28;20497;-58
2023/07/20 08:51:46;;;;;;;6.72;4.32;;;;;;;28.88;51.88;100519.88;5069578;28;20496;-58
2023/07/20 08:54:14;;;;;;;5.38;4.07;;;;;;;28.86;51.50;100513.81;5061851;28;20055;-58
2023/07/20 08:56:45;;;;;;;5.07;3.45;;;;;;;28.87;51.67;100516.31;5067959;28;20049;-58
2023/07/20 08:59:18;;;;;;;7.20;4.13;;;;;;;28.89;51.82;100508.78;5057713;28;20111;-58
2023/07/20 09:01:46;;;;;;;;;;;;;;;28.88;51.46;100515.25;5055334;28;20067;-58
2023/07/20 09:04:13;;;;;;;5.45;4.18;;;;;;;28.90;51.43;100518.63;5062853;28;20368;-58
2023/07/20 09:06:40;;;;;;;5.55;3.45;;;;;;;28.91;51.47;100505.84;5065881;28;20059;-58
2023/07/20 09:09:11;;;;;;;6.75;4.47;;;;;;;28.92;51.63;100499.34;5057591;28;20045;-58
2023/07/20 09:11:40;;;;;;;4.82;3.92;;;;;;;28.92;51.57;100505.63;5072375;28;20052;-58
2023/07/20 09:14:10;;;;;;;6.38;4.00;;;;;;;28.92;51.74;100505.63;5063736;28;20049;-58
2023/07/20 09:16:48;;;;;;;5.43;3.80;;;;;;;28.91;51.88;100503.13;5067508;28;20392;-63
2023/07/20 09:19:16;;;;;;;6.90;4.57;;;;;;;28.90;51.59;100507.75;5067608;28;20055;-63
2023/07/20 09:21:46;;;;;;;6.38;4.20;;;;;;;28.91;51.60;100501.25;5061092;28;20055;-64
2023/07/20 09:24:14;;;;;;;8.85;4.13;;;;;;;28.91;51.82;100503.97;5061274;28;20047;-63
2023/07/20 09:26:45;;;;;;;6.13;4.53;;;;;;;28.92;52.10;100505.63;5068933;28;20047;-63
2023/07/20 09:29:18;;;;;;;7.90;4.10;;;;;;;28.92;51.93;100505.63;5068099;28;20052;-63
2023/07/20 09:32:05;;;;;;;6.57;4.20;;;;;;;28.92;52.52;100500.19;5062644;28;20040;-63
2023/07/20 09:34:32;;;;;;;10.32;5.22;;;;;;;28.94;52.65;100508.19;5057410;28;20396;-64
2023/07/20 09:37:03;;;;;;;6.63;4.28;;;;;;;28.92;52.70;100505.63;5069057;28;20381;-58
2023/07/20 09:39:32;;;;;;;7.63;4.25;;;;;;;28.92;52.61;100505.63;5061720;28;20408;-58
2023/07/20 09:42:04;;;;;;;8.20;4.50;;;;;;;28.92;52.40;100508.34;5065686;28;20411;-58
2023/07/20 09:44:35;;;;;;;7.80;4.53;;;;;;;28.92;52.61;100500.19;5057355;28;20049;-58
2023/07/20 09:47:05;;;;;;;5.85;4.25;;;;;;;28.93;52.50;100501.88;5070848;28;20044;-63
2023/07/20 09:49:39;;;;;;;7.47;4.20;;;;;;;28.94;52.33;100503.56;5071900;28;20400;-63
2023/07/20 09:52:11;;;;;;;7.05;4.35;;;;;;;28.94;52.48;100506.28;5070999;28;20036;-63
2023/07/20 09:54:38;;;;;;;5.85;3.70;;;;;;;28.95;52.54;100502.50;5055777;28;20520;-63
2023/07/20 09:57:08;;;;;;;6.32;4.63;;;;;;;28.96;52.37;100498.72;5065174;28;20044;-58
2023/07/20 09:59:36;;;;;;;6.65;4.60;;;;;;;28.97;52.35;100496.91;5053645;28;20052;-58
2023/07/20 10:02:12;;;;;;;7.60;5.30;;;;;;;28.98;52.70;100499.41;5068425;28;20040;-58
2023/07/20 10:04:43;;;;;;;8.60;4.95;;;;;;;28.98;53.42;100501.31;5058497;28;20061;-63
2023/07/20 10:07:13;;;;;;;5.80;4.30;;;;;;;28.98;53.35;100495.84;5069834;28;20044;-58
2023/07/20 10:09:43;;;;;;;6.30;4.35;;;;;;;28.99;53.15;100494.81;5059105;28;20056;-58
2023/07/20 10:12:10;;;;;;;5.68;4.32;;;;;;;28.99;53.36;100490.19;5069566;28;20041;-58
2023/07/20 10:14:52;;;;;;;7.95;5.25;;;;;;;28.99;53.56;100492.91;5060044;28;20059;-58
2023/07/20 10:17:21;;;;;;;5.95;4.45;;;;;;;29.00;53.32;100491.88;5068164;28;20040;-63
2023/07/20 10:19:54;;;;;;;8.38;5.00;;;;;;;29.01;53.67;100492.72;5057235;28;20052;-63
2023/07/20 10:22:26;;;;;;;6.63;5.15;;;;;;;29.03;54.00;100490.63;5067448;28;20041;-63
2023/07/20 10:24:54;;;;;;;6.75;5.07;;;;;;;29.03;54.22;100491.47;5052647;28;20041;-63
2023/07/20 10:27:22;;;;;;;7.68;5.20;;;;;;;29.04;54.26;100495.03;5060150;28;20127;-58
2023/07/20 10:29:52;;;;;;;7.38;4.80;;;;;;;29.04;53.84;100493.13;5056771;28;20401;-58
2023/07/20 10:32:20;;;;;;;9.50;5.13;;;;;;;29.06;53.98;100482.88;5071494;28;20385;-58
2023/07/20 10:34:52;;;;;;;6.45;5.25;;;;;;;29.06;54.52;100485.59;5057767;28;20049;-58
2023/07/20 10:37:49;;;;;;;8.40;5.47;;;;;;;29.08;54.17;100490.84;5067766;28;20045;-58
2023/07/20 10:40:26;;;;;;;8.55;5.65;;;;;;;29.09;54.64;100487.09;5059511;28;20056;-58
2023/07/20 10:43:20;;;;;;;10.85;5.25;;;;;;;29.11;55.01;100487.72;5071144;28;20044;-58
2023/07/20 10:45:52;;;;;;;8.45;5.32;;;;;;;29.13;54.80;100476.59;5067672;28;20064;-58
2023/07/20 10:48:24;;;;;;;9.02;5.63;;;;;;;29.13;54.45;100473.88;5065853;28;20056;-63
2023/07/20 10:51:14;;;;;;;7.18;5.38;;;;;;;29.14;55.13;100467.41;5068982;28;20052;-58
2023/07/20 10:53:41;;;;;;;8.38;5.70;;;;;;;29.16;55.25;100466.13;5067373;28;20044;-58
2023/07/20 10:56:19;;;;;;;9.55;5.20;;;;;;;29.17;54.94;100465.09;5063344;28;20048;-62
2023/07/20 10:58:48;;;;;;;8.98;5.80;;;;;;;29.18;55.05;100464.06;5062361;28;20048;-58
2023/07/20 11:01:19;;;;;;;6.53;5.35;;;;;;;29.18;54.79;100460.50;5072561;28;20051;-58
2023/07/20 11:03:50;;;;;;;6.90;4.80;;;;;;;29.19;54.80;100460.28;5066943;28;20052;-58
2023/07/20 11:06:26;;;;;;;8.35;4.95;;;;;;;29.19;54.78;100459.44;5066601;28;20052;-59
2023/07/20 11:09:14;;;;;;;5.82;5.22;;;;;;;29.19;55.07;100448.53;5060118;28;20044;-58
2023/07/20 11:11:47;;;;;;;9.38;6.00;;;;;;;29.21;54.97;100451.88;5062015;28;20052;-58
2023/07/20 11:14:22;;;;;;;7.18;5.65;;;;;;;29.22;55.02;100456.31;5064416;28;20435;-58
2023/07/20 11:16:51;;;;;;;7.05;5.90;;;;;;;29.22;55.35;100448.13;5071398;28;20052;-57
2023/07/20 11:19:23;;;;;;;7.65;5.53;;;;;;;29.23;55.78;100457.97;5070459;28;20060;-57
2023/07/20 11:21:58;;;;;;;7.90;6.43;;;;;;;29.24;56.10;100452.31;5063789;28;20045;-53
2023/07/20 11:24:28;;;;;;;7.55;5.78;;;;;;;29.25;55.92;100450.41;5070106;28;20040;-51
2023/07/20 11:26:55;;;;;;;7.13;6.10;;;;;;;29.24;55.80;100437.84;5059294;28;20056;-51
2023/07/20 11:29:25;;;;;;;9.32;6.32;;;;;;;29.25;55.98;100444.97;5061497;28;20094;-52
2023/07/20 11:32:00;;;;;;;8.50;5.75;;;;;;;29.25;55.79;100434.91;5064306;28;20052;-53
2023/07/20 11:34:30;;;;;;;8.20;5.88;;;;;;;29.26;55.64;100443.94;5059494;28;20041;-53
2023/07/20 11:36:58;;;;;;;9.05;6.43;;;;;;;29.24;55.53;100430.50;5070573;28;20047;-51